sensor_id;sensor_type;location;lat;lon;timestamp;temperature;humidity
10388;DHT22;5240;51.128;4.566;2023-08-21T00:01:29;21.00;99.90
10388;DHT22;5240;51.128;4.566;2023-08-21T00:03:56;21.00;99.90
10388;DHT22;5240;51.128;4.566;2023-08-21T00:06:25;20.90;99.90
10388;DHT22;5240;51.128;4.566;2023-08-21T00:08:52;21.00;99.90
10388;DHT22;5240;51.128;4.566;2023-08-21T00:11:19;20.90;99.90
10388;DHT22;5240;51.128;4.566;2023-08-21T00:13:46;20.80;99.90
10388;DHT22;5240;51.128;4.566;2023-08-21T00:16:15;20.80;99.90
10388;DHT22;5240;51.128;4.566;2023-08-21T00:18:42;20.70;99.90
10388;DHT22;5240;51.128;4.566;2023-08-21T00:21:09;20.70;99.90
10388;DHT22;5240;51.128;4.566;2023-08-21T00:23:37;20.70;99.90
10388;DHT22;5240;51.128;4.566;2023-08-21T00:26:04;20.80;99.90
10388;DHT22;5240;51.128;4.566;2023-08-21T00:28:31;20.70;99.90
10388;DHT22;5240;51.128;4.566;2023-08-21T00:31:01;20.70;99.90
10388;DHT22;5240;51.128;4.566;2023-08-21T00:33:28;20.80;99.90
10388;DHT22;5240;51.128;4.566;2023-08-21T00:35:55;20.90;99.90
10388;DHT22;5240;51.128;4.566;2023-08-21T00:38:22;20.90;99.90
10388;DHT22;5240;51.128;4.566;2023-08-21T00:40:51;20.90;99.90
10388;DHT22;5240;51.128;4.566;2023-08-21T00:43:18;20.90;99.90
10388;DHT22;5240;51.128;4.566;2023-08-21T00:45:45;20.80;99.90
10388;DHT22;5240;51.128;4.566;2023-08-21T00:48:14;20.80;99.90
10388;DHT22;5240;51.128;4.566;2023-08-21T00:50:41;20.70;99.90
10388;DHT22;5240;51.128;4.566;2023-08-21T00:53:09;20.80;99.90
10388;DHT22;5240;51.128;4.566;2023-08-21T00:55:37;20.80;99.90
10388;DHT22;5240;51.128;4.566;2023-08-21T00:58:06;20.80;99.90
10388;DHT22;5240;51.128;4.566;2023-08-21T01:00:35;20.80;99.90
10388;DHT22;5240;51.128;4.566;2023-08-21T01:03:02;20.70;99.90
10388;DHT22;5240;51.128;4.566;2023-08-21T01:05:29;20.60;99.90
10388;DHT22;5240;51.128;4.566;2023-08-21T01:08:01;20.60;99.90
10388;DHT22;5240;51.128;4.566;2023-08-21T01:10:37;20.50;99.90
10388;DHT22;5240;51.128;4.566;2023-08-21T01:13:14;20.50;99.90
10388;DHT22;5240;51.128;4.566;2023-08-21T01:15:46;20.50;99.90
10388;DHT22;5240;51.128;4.566;2023-08-21T01:18:14;20.40;99.90
10388;DHT22;5240;51.128;4.566;2023-08-21T01:20:42;20.30;99.90
10388;DHT22;5240;51.128;4.566;2023-08-21T01:23:09;20.20;99.90
10388;DHT22;5240;51.128;4.566;2023-08-21T01:25:37;20.10;99.90
10388;DHT22;5240;51.128;4.566;2023-08-21T01:28:04;20.10;99.90
10388;DHT22;5240;51.128;4.566;2023-08-21T01:30:32;20.00;99.90
10388;DHT22;5240;51.128;4.566;2023-08-21T01:33:02;19.90;99.90
10388;DHT22;5240;51.128;4.566;2023-08-21T01:35:33;19.90;99.90
10388;DHT22;5240;51.128;4.566;2023-08-21T01:38:02;19.90;99.90
10388;DHT22;5240;51.128;4.566;2023-08-21T01:40:29;19.90;99.90
10388;DHT22;5240;51.128;4.566;2023-08-21T01:42:57;19.90;99.90
10388;DHT22;5240;51.128;4.566;2023-08-21T01:45:24;19.90;99.90
10388;DHT22;5240;51.128;4.566;2023-08-21T01:47:51;19.80;99.90
10388;DHT22;5240;51.128;4.566;2023-08-21T01:50:18;19.90;99.90
10388;DHT22;5240;51.128;4.566;2023-08-21T01:52:45;19.90;99.90
10388;DHT22;5240;51.128;4.566;2023-08-21T01:55:12;19.90;99.90
10388;DHT22;5240;51.128;4.566;2023-08-21T01:57:39;20.00;99.90
10388;DHT22;5240;51.128;4.566;2023-08-21T02:00:10;20.00;99.90
10388;DHT22;5240;51.128;4.566;2023-08-21T02:02:38;20.00;99.90
10388;DHT22;5240;51.128;4.566;2023-08-21T02:05:06;20.00;99.90
10388;DHT22;5240;51.128;4.566;2023-08-21T02:07:33;20.10;99.90
10388;DHT22;5240;51.128;4.566;2023-08-21T02:10:00;20.10;99.90
10388;DHT22;5240;51.128;4.566;2023-08-21T02:12:27;20.10;99.90
10388;DHT22;5240;51.128;4.566;2023-08-21T02:14:54;20.10;99.90
10388;DHT22;5240;51.128;4.566;2023-08-21T02:17:25;20.10;99.90
10388;DHT22;5240;51.128;4.566;2023-08-21T02:19:52;20.10;99.90
10388;DHT22;5240;51.128;4.566;2023-08-21T02:22:19;20.00;99.90
10388;DHT22;5240;51.128;4.566;2023-08-21T02:24:46;20.00;99.90
10388;DHT22;5240;51.128;4.566;2023-08-21T02:27:13;20.00;99.90
10388;DHT22;5240;51.128;4.566;2023-08-21T02:29:40;19.80;99.90
10388;DHT22;5240;51.128;4.566;2023-08-21T02:32:07;19.70;99.90
10388;DHT22;5240;51.128;4.566;2023-08-21T02:34:36;19.60;99.90
10388;DHT22;5240;51.128;4.566;2023-08-21T02:37:03;19.50;99.90
10388;DHT22;5240;51.128;4.566;2023-08-21T02:39:30;19.40;99.90
10388;DHT22;5240;51.128;4.566;2023-08-21T02:41:57;19.40;99.90
10388;DHT22;5240;51.128;4.566;2023-08-21T02:44:24;19.30;99.90
10388;DHT22;5240;51.128;4.566;2023-08-21T02:46:51;19.40;99.90
10388;DHT22;5240;51.128;4.566;2023-08-21T02:49:18;19.40;99.90
10388;DHT22;5240;51.128;4.566;2023-08-21T02:51:46;19.30;99.90
10388;DHT22;5240;51.128;4.566;2023-08-21T02:54:13;19.30;99.90
10388;DHT22;5240;51.128;4.566;2023-08-21T02:56:40;19.30;99.90
10388;DHT22;5240;51.128;4.566;2023-08-21T02:59:07;19.20;99.90
10388;DHT22;5240;51.128;4.566;2023-08-21T03:01:34;19.20;99.90
10388;DHT22;5240;51.128;4.566;2023-08-21T03:04:01;19.20;99.90
10388;DHT22;5240;51.128;4.566;2023-08-21T03:06:28;19.30;99.90
10388;DHT22;5240;51.128;4.566;2023-08-21T03:08:56;19.30;99.90
10388;DHT22;5240;51.128;4.566;2023-08-21T03:11:23;19.30;99.90
10388;DHT22;5240;51.128;4.566;2023-08-21T03:13:50;19.20;99.90
10388;DHT22;5240;51.128;4.566;2023-08-21T03:16:17;19.20;99.90
10388;DHT22;5240;51.128;4.566;2023-08-21T03:18:54;19.20;99.90
10388;DHT22;5240;51.128;4.566;2023-08-21T03:21:22;19.30;99.90
10388;DHT22;5240;51.128;4.566;2023-08-21T03:23:50;19.30;99.90
10388;DHT22;5240;51.128;4.566;2023-08-21T03:26:19;19.30;99.90
10388;DHT22;5240;51.128;4.566;2023-08-21T03:28:46;19.30;99.90
10388;DHT22;5240;51.128;4.566;2023-08-21T03:31:14;19.30;99.90
10388;DHT22;5240;51.128;4.566;2023-08-21T03:33:41;19.30;99.90
10388;DHT22;5240;51.128;4.566;2023-08-21T03:36:08;19.30;99.90
10388;DHT22;5240;51.128;4.566;2023-08-21T03:38:34;19.20;99.90
10388;DHT22;5240;51.128;4.566;2023-08-21T03:41:02;19.20;99.90
10388;DHT22;5240;51.128;4.566;2023-08-21T03:43:32;19.10;99.90
10388;DHT22;5240;51.128;4.566;2023-08-21T03:45:58;19.10;99.90
10388;DHT22;5240;51.128;4.566;2023-08-21T03:48:25;19.10;99.90
10388;DHT22;5240;51.128;4.566;2023-08-21T03:50:52;19.10;99.90
10388;DHT22;5240;51.128;4.566;2023-08-21T03:53:19;19.10;99.90
10388;DHT22;5240;51.128;4.566;2023-08-21T03:55:46;19.00;99.90
10388;DHT22;5240;51.128;4.566;2023-08-21T03:58:14;19.00;99.90
10388;DHT22;5240;51.128;4.566;2023-08-21T04:00:43;19.00;99.90
10388;DHT22;5240;51.128;4.566;2023-08-21T04:03:09;18.90;99.90
10388;DHT22;5240;51.128;4.566;2023-08-21T04:05:37;18.90;99.90
10388;DHT22;5240;51.128;4.566;2023-08-21T04:08:04;19.00;99.90
10388;DHT22;5240;51.128;4.566;2023-08-21T04:10:31;18.90;99.90
10388;DHT22;5240;51.128;4.566;2023-08-21T04:12:58;18.90;99.90
10388;DHT22;5240;51.128;4.566;2023-08-21T04:15:25;18.90;99.90
10388;DHT22;5240;51.128;4.566;2023-08-21T04:17:54;18.80;99.90
10388;DHT22;5240;51.128;4.566;2023-08-21T04:20:20;18.80;99.90
10388;DHT22;5240;51.128;4.566;2023-08-21T04:22:48;18.80;99.90
10388;DHT22;5240;51.128;4.566;2023-08-21T04:25:15;18.80;99.90
10388;DHT22;5240;51.128;4.566;2023-08-21T04:27:42;18.80;99.90
10388;DHT22;5240;51.128;4.566;2023-08-21T04:30:10;18.80;99.90
10388;DHT22;5240;51.128;4.566;2023-08-21T04:32:37;18.70;99.90
10388;DHT22;5240;51.128;4.566;2023-08-21T04:35:06;18.80;99.90
10388;DHT22;5240;51.128;4.566;2023-08-21T04:37:34;18.80;99.90
10388;DHT22;5240;51.128;4.566;2023-08-21T04:40:01;18.70;99.90
10388;DHT22;5240;51.128;4.566;2023-08-21T04:42:28;18.70;99.90
10388;DHT22;5240;51.128;4.566;2023-08-21T04:44:55;18.70;99.90
10388;DHT22;5240;51.128;4.566;2023-08-21T04:47:24;18.70;99.90
10388;DHT22;5240;51.128;4.566;2023-08-21T04:49:52;18.70;99.90
10388;DHT22;5240;51.128;4.566;2023-08-21T04:52:20;18.60;99.90
10388;DHT22;5240;51.128;4.566;2023-08-21T04:54:48;18.60;99.90
10388;DHT22;5240;51.128;4.566;2023-08-21T04:57:15;18.60;99.90
10388;DHT22;5240;51.128;4.566;2023-08-21T04:59:42;18.60;99.90
10388;DHT22;5240;51.128;4.566;2023-08-21T05:02:09;18.60;99.90
10388;DHT22;5240;51.128;4.566;2023-08-21T05:04:37;18.60;99.90
10388;DHT22;5240;51.128;4.566;2023-08-21T05:07:04;18.60;99.90
10388;DHT22;5240;51.128;4.566;2023-08-21T05:09:32;18.60;99.90
10388;DHT22;5240;51.128;4.566;2023-08-21T05:11:59;18.60;99.90
10388;DHT22;5240;51.128;4.566;2023-08-21T05:14:26;18.60;99.90
10388;DHT22;5240;51.128;4.566;2023-08-21T05:16:53;18.60;99.90
10388;DHT22;5240;51.128;4.566;2023-08-21T05:19:20;18.70;99.90
10388;DHT22;5240;51.128;4.566;2023-08-21T05:21:47;18.70;99.90
10388;DHT22;5240;51.128;4.566;2023-08-21T05:24:14;18.80;99.90
10388;DHT22;5240;51.128;4.566;2023-08-21T05:26:43;18.90;99.90
10388;DHT22;5240;51.128;4.566;2023-08-21T05:29:10;18.90;99.90
10388;DHT22;5240;51.128;4.566;2023-08-21T05:31:36;18.90;99.90
10388;DHT22;5240;51.128;4.566;2023-08-21T05:34:03;18.90;99.90
10388;DHT22;5240;51.128;4.566;2023-08-21T05:36:30;19.00;99.90
10388;DHT22;5240;51.128;4.566;2023-08-21T05:38:57;19.10;99.90
10388;DHT22;5240;51.128;4.566;2023-08-21T05:41:24;19.10;99.90
10388;DHT22;5240;51.128;4.566;2023-08-21T05:43:53;19.20;99.90
10388;DHT22;5240;51.128;4.566;2023-08-21T05:46:20;19.30;99.90
10388;DHT22;5240;51.128;4.566;2023-08-21T05:48:46;19.30;99.90
10388;DHT22;5240;51.128;4.566;2023-08-21T05:51:13;19.40;99.90
10388;DHT22;5240;51.128;4.566;2023-08-21T05:53:40;19.50;99.90
10388;DHT22;5240;51.128;4.566;2023-08-21T05:56:07;19.60;99.90
10388;DHT22;5240;51.128;4.566;2023-08-21T05:58:34;19.70;99.90
10388;DHT22;5240;51.128;4.566;2023-08-21T06:01:02;19.80;99.90
10388;DHT22;5240;51.128;4.566;2023-08-21T06:03:29;19.90;99.90
10388;DHT22;5240;51.128;4.566;2023-08-21T06:05:56;20.00;99.90
10388;DHT22;5240;51.128;4.566;2023-08-21T06:08:23;20.00;99.90
10388;DHT22;5240;51.128;4.566;2023-08-21T06:10:53;20.00;99.90
10388;DHT22;5240;51.128;4.566;2023-08-21T06:13:20;20.00;99.90
10388;DHT22;5240;51.128;4.566;2023-08-21T06:15:47;19.90;99.90
10388;DHT22;5240;51.128;4.566;2023-08-21T06:18:16;20.00;99.90
10388;DHT22;5240;51.128;4.566;2023-08-21T06:20:43;20.00;99.90
10388;DHT22;5240;51.128;4.566;2023-08-21T06:23:10;20.00;99.90
10388;DHT22;5240;51.128;4.566;2023-08-21T06:25:37;20.10;99.90
10388;DHT22;5240;51.128;4.566;2023-08-21T06:28:04;20.10;99.90
10388;DHT22;5240;51.128;4.566;2023-08-21T06:30:31;20.10;99.90
10388;DHT22;5240;51.128;4.566;2023-08-21T06:32:58;20.10;99.90
10388;DHT22;5240;51.128;4.566;2023-08-21T06:35:27;20.20;99.90
10388;DHT22;5240;51.128;4.566;2023-08-21T06:37:54;20.30;99.90
10388;DHT22;5240;51.128;4.566;2023-08-21T06:40:21;20.40;99.90
10388;DHT22;5240;51.128;4.566;2023-08-21T06:42:48;20.40;99.90
10388;DHT22;5240;51.128;4.566;2023-08-21T06:45:16;20.50;99.90
10388;DHT22;5240;51.128;4.566;2023-08-21T06:47:43;20.50;99.90
10388;DHT22;5240;51.128;4.566;2023-08-21T06:50:10;20.50;99.90
10388;DHT22;5240;51.128;4.566;2023-08-21T06:52:42;20.60;99.90
10388;DHT22;5240;51.128;4.566;2023-08-21T06:55:09;20.70;99.90
10388;DHT22;5240;51.128;4.566;2023-08-21T06:57:36;20.70;99.90
10388;DHT22;5240;51.128;4.566;2023-08-21T07:00:04;20.70;99.90
10388;DHT22;5240;51.128;4.566;2023-08-21T07:02:32;20.90;99.90
10388;DHT22;5240;51.128;4.566;2023-08-21T07:04:59;20.90;99.90
10388;DHT22;5240;51.128;4.566;2023-08-21T07:07:26;21.00;99.90
10388;DHT22;5240;51.128;4.566;2023-08-21T07:09:54;21.10;99.90
10388;DHT22;5240;51.128;4.566;2023-08-21T07:12:22;21.20;99.90
10388;DHT22;5240;51.128;4.566;2023-08-21T07:14:49;21.30;99.90
10388;DHT22;5240;51.128;4.566;2023-08-21T07:17:16;21.30;99.90
10388;DHT22;5240;51.128;4.566;2023-08-21T07:19:43;21.30;99.90
10388;DHT22;5240;51.128;4.566;2023-08-21T07:22:10;21.30;99.90
10388;DHT22;5240;51.128;4.566;2023-08-21T07:24:37;21.30;99.90
10388;DHT22;5240;51.128;4.566;2023-08-21T07:27:05;21.40;99.90
10388;DHT22;5240;51.128;4.566;2023-08-21T07:29:32;21.40;99.90
10388;DHT22;5240;51.128;4.566;2023-08-21T07:31:59;21.50;99.90
10388;DHT22;5240;51.128;4.566;2023-08-21T07:34:26;21.60;99.90
10388;DHT22;5240;51.128;4.566;2023-08-21T07:36:53;21.70;99.90
10388;DHT22;5240;51.128;4.566;2023-08-21T07:39:19;21.80;99.90
10388;DHT22;5240;51.128;4.566;2023-08-21T07:41:46;21.90;99.90
10388;DHT22;5240;51.128;4.566;2023-08-21T07:44:15;21.90;99.90
10388;DHT22;5240;51.128;4.566;2023-08-21T07:46:42;22.00;99.90
10388;DHT22;5240;51.128;4.566;2023-08-21T07:49:08;22.20;99.90
10388;DHT22;5240;51.128;4.566;2023-08-21T07:51:35;22.30;99.90
10388;DHT22;5240;51.128;4.566;2023-08-21T07:54:03;22.40;99.90
10388;DHT22;5240;51.128;4.566;2023-08-21T07:56:29;22.40;99.90
10388;DHT22;5240;51.128;4.566;2023-08-21T07:58:56;22.50;99.90
10388;DHT22;5240;51.128;4.566;2023-08-21T08:01:25;22.70;99.90
10388;DHT22;5240;51.128;4.566;2023-08-21T08:03:52;22.80;99.90
10388;DHT22;5240;51.128;4.566;2023-08-21T08:06:18;22.80;99.90
10388;DHT22;5240;51.128;4.566;2023-08-21T08:08:45;22.90;99.90
10388;DHT22;5240;51.128;4.566;2023-08-21T08:11:12;22.90;99.90
10388;DHT22;5240;51.128;4.566;2023-08-21T08:13:39;22.90;99.90
10388;DHT22;5240;51.128;4.566;2023-08-21T08:16:06;22.90;99.90
10388;DHT22;5240;51.128;4.566;2023-08-21T08:18:35;23.10;99.90
10388;DHT22;5240;51.128;4.566;2023-08-21T08:21:02;23.30;99.90
10388;DHT22;5240;51.128;4.566;2023-08-21T08:23:29;23.30;99.90
10388;DHT22;5240;51.128;4.566;2023-08-21T08:25:56;23.40;99.90
10388;DHT22;5240;51.128;4.566;2023-08-21T08:28:23;23.40;99.90
10388;DHT22;5240;51.128;4.566;2023-08-21T08:30:50;23.50;99.90
10388;DHT22;5240;51.128;4.566;2023-08-21T08:33:17;23.60;99.90
10388;DHT22;5240;51.128;4.566;2023-08-21T08:35:46;23.70;99.90
10388;DHT22;5240;51.128;4.566;2023-08-21T08:38:12;23.80;99.90
10388;DHT22;5240;51.128;4.566;2023-08-21T08:40:44;23.90;99.90
10388;DHT22;5240;51.128;4.566;2023-08-21T08:43:11;24.00;99.90
10388;DHT22;5240;51.128;4.566;2023-08-21T08:45:40;24.20;99.90
10388;DHT22;5240;51.128;4.566;2023-08-21T08:48:07;24.70;99.90
10388;DHT22;5240;51.128;4.566;2023-08-21T08:50:35;25.20;99.90
10388;DHT22;5240;51.128;4.566;2023-08-21T08:53:04;25.60;99.90
10388;DHT22;5240;51.128;4.566;2023-08-21T08:55:32;26.00;99.90
10388;DHT22;5240;51.128;4.566;2023-08-21T08:57:59;26.60;99.90
10388;DHT22;5240;51.128;4.566;2023-08-21T09:00:27;27.10;99.90
10388;DHT22;5240;51.128;4.566;2023-08-21T09:02:55;27.40;99.90
10388;DHT22;5240;51.128;4.566;2023-08-21T09:05:23;27.30;99.90
10388;DHT22;5240;51.128;4.566;2023-08-21T09:08:04;27.40;99.90
10388;DHT22;5240;51.128;4.566;2023-08-21T09:10:36;27.80;99.90
10388;DHT22;5240;51.128;4.566;2023-08-21T09:13:12;28.50;99.90
10388;DHT22;5240;51.128;4.566;2023-08-21T09:15:41;28.60;99.90
10388;DHT22;5240;51.128;4.566;2023-08-21T09:18:10;28.80;99.90
10388;DHT22;5240;51.128;4.566;2023-08-21T09:20:38;28.50;99.90
10388;DHT22;5240;51.128;4.566;2023-08-21T09:23:06;28.60;99.90
10388;DHT22;5240;51.128;4.566;2023-08-21T09:25:38;29.00;99.90
10388;DHT22;5240;51.128;4.566;2023-08-21T09:28:06;28.60;99.90
10388;DHT22;5240;51.128;4.566;2023-08-21T09:30:49;28.40;99.90
10388;DHT22;5240;51.128;4.566;2023-08-21T09:33:20;28.40;99.90
10388;DHT22;5240;51.128;4.566;2023-08-21T09:35:48;28.80;99.90
10388;DHT22;5240;51.128;4.566;2023-08-21T09:38:16;29.10;99.90
10388;DHT22;5240;51.128;4.566;2023-08-21T09:40:50;29.60;99.90
10388;DHT22;5240;51.128;4.566;2023-08-21T09:43:17;29.60;99.90
10388;DHT22;5240;51.128;4.566;2023-08-21T09:45:46;29.30;99.90
10388;DHT22;5240;51.128;4.566;2023-08-21T09:48:14;28.90;99.90
10388;DHT22;5240;51.128;4.566;2023-08-21T09:50:41;28.70;99.90
10388;DHT22;5240;51.128;4.566;2023-08-21T09:53:09;28.60;99.90
10388;DHT22;5240;51.128;4.566;2023-08-21T09:55:39;28.40;99.90
10388;DHT22;5240;51.128;4.566;2023-08-21T09:58:06;28.40;99.90
10388;DHT22;5240;51.128;4.566;2023-08-21T10:00:35;28.00;99.90
10388;DHT22;5240;51.128;4.566;2023-08-21T10:03:04;28.60;99.90
10388;DHT22;5240;51.128;4.566;2023-08-21T10:05:32;29.90;99.90
10388;DHT22;5240;51.128;4.566;2023-08-21T10:08:02;30.10;99.90
10388;DHT22;5240;51.128;4.566;2023-08-21T10:10:30;30.20;99.90
10388;DHT22;5240;51.128;4.566;2023-08-21T10:12:59;29.90;99.90
10388;DHT22;5240;51.128;4.566;2023-08-21T10:15:28;29.70;99.90
10388;DHT22;5240;51.128;4.566;2023-08-21T10:17:56;29.90;99.90
10388;DHT22;5240;51.128;4.566;2023-08-21T10:20:25;30.40;99.90
10388;DHT22;5240;51.128;4.566;2023-08-21T10:22:53;30.90;99.90
10388;DHT22;5240;51.128;4.566;2023-08-21T10:25:22;31.80;99.90
10388;DHT22;5240;51.128;4.566;2023-08-21T10:27:53;32.10;99.90
10388;DHT22;5240;51.128;4.566;2023-08-21T10:30:23;32.20;99.90
10388;DHT22;5240;51.128;4.566;2023-08-21T10:32:53;31.70;99.90
10388;DHT22;5240;51.128;4.566;2023-08-21T10:35:23;31.40;99.90
10388;DHT22;5240;51.128;4.566;2023-08-21T10:38:06;31.40;99.90
10388;DHT22;5240;51.128;4.566;2023-08-21T10:40:33;31.50;99.90
10388;DHT22;5240;51.128;4.566;2023-08-21T10:43:00;31.70;99.90
10388;DHT22;5240;51.128;4.566;2023-08-21T10:45:29;31.90;99.90
10388;DHT22;5240;51.128;4.566;2023-08-21T10:47:57;32.00;99.90
10388;DHT22;5240;51.128;4.566;2023-08-21T10:50:24;32.20;99.90
10388;DHT22;5240;51.128;4.566;2023-08-21T10:52:53;32.40;99.90
10388;DHT22;5240;51.128;4.566;2023-08-21T10:55:20;32.20;99.90
10388;DHT22;5240;51.128;4.566;2023-08-21T10:57:48;32.50;99.90
10388;DHT22;5240;51.128;4.566;2023-08-21T11:00:16;32.20;99.90
10388;DHT22;5240;51.128;4.566;2023-08-21T11:02:46;32.00;99.90
10388;DHT22;5240;51.128;4.566;2023-08-21T11:05:15;32.20;99.90
10388;DHT22;5240;51.128;4.566;2023-08-21T11:07:43;32.40;99.90
10388;DHT22;5240;51.128;4.566;2023-08-21T11:10:11;32.80;99.90
10388;DHT22;5240;51.128;4.566;2023-08-21T11:12:48;33.40;99.90
10388;DHT22;5240;51.128;4.566;2023-08-21T11:15:15;33.20;99.90
10388;DHT22;5240;51.128;4.566;2023-08-21T11:17:51;32.60;99.90
10388;DHT22;5240;51.128;4.566;2023-08-21T11:20:18;33.10;99.90
10388;DHT22;5240;51.128;4.566;2023-08-21T11:22:45;33.30;99.90
10388;DHT22;5240;51.128;4.566;2023-08-21T11:25:14;34.00;99.90
10388;DHT22;5240;51.128;4.566;2023-08-21T11:27:42;33.70;99.90
10388;DHT22;5240;51.128;4.566;2023-08-21T11:30:11;33.70;99.90
10388;DHT22;5240;51.128;4.566;2023-08-21T11:32:39;32.90;99.90
10388;DHT22;5240;51.128;4.566;2023-08-21T11:35:08;33.20;99.90
10388;DHT22;5240;51.128;4.566;2023-08-21T11:37:43;34.40;99.90
10388;DHT22;5240;51.128;4.566;2023-08-21T11:40:11;34.30;99.90
10388;DHT22;5240;51.128;4.566;2023-08-21T11:42:39;34.80;99.90
10388;DHT22;5240;51.128;4.566;2023-08-21T11:45:08;35.70;99.90
10388;DHT22;5240;51.128;4.566;2023-08-21T11:47:36;35.40;99.90
10388;DHT22;5240;51.128;4.566;2023-08-21T11:50:05;34.40;99.90
10388;DHT22;5240;51.128;4.566;2023-08-21T11:52:33;34.60;99.90
10388;DHT22;5240;51.128;4.566;2023-08-21T11:55:08;34.80;99.90
10388;DHT22;5240;51.128;4.566;2023-08-21T11:57:46;35.40;99.90
10388;DHT22;5240;51.128;4.566;2023-08-21T12:00:13;35.70;99.90
10388;DHT22;5240;51.128;4.566;2023-08-21T12:02:53;35.30;99.90
10388;DHT22;5240;51.128;4.566;2023-08-21T12:05:20;35.50;99.90
10388;DHT22;5240;51.128;4.566;2023-08-21T12:07:48;35.70;99.90
10388;DHT22;5240;51.128;4.566;2023-08-21T12:10:22;35.90;99.90
10388;DHT22;5240;51.128;4.566;2023-08-21T12:12:49;36.00;99.30
10388;DHT22;5240;51.128;4.566;2023-08-21T12:15:16;35.20;99.90
10388;DHT22;5240;51.128;4.566;2023-08-21T12:17:43;35.30;99.90
10388;DHT22;5240;51.128;4.566;2023-08-21T12:20:10;35.50;99.90
10388;DHT22;5240;51.128;4.566;2023-08-21T12:22:37;35.80;99.90
10388;DHT22;5240;51.128;4.566;2023-08-21T12:25:06;35.40;99.90
10388;DHT22;5240;51.128;4.566;2023-08-21T12:27:34;35.10;99.90
10388;DHT22;5240;51.128;4.566;2023-08-21T12:30:01;35.30;99.90
10388;DHT22;5240;51.128;4.566;2023-08-21T12:32:28;35.20;99.90
10388;DHT22;5240;51.128;4.566;2023-08-21T12:34:55;35.20;99.90
10388;DHT22;5240;51.128;4.566;2023-08-21T12:37:22;36.50;98.70
10388;DHT22;5240;51.128;4.566;2023-08-21T12:39:48;37.10;98.70
10388;DHT22;5240;51.128;4.566;2023-08-21T12:42:17;36.40;99.20
10388;DHT22;5240;51.128;4.566;2023-08-21T12:44:44;36.70;98.80
10388;DHT22;5240;51.128;4.566;2023-08-21T12:47:11;37.10;98.30
10388;DHT22;5240;51.128;4.566;2023-08-21T12:49:38;37.50;97.40
10388;DHT22;5240;51.128;4.566;2023-08-21T12:52:05;36.80;98.20
10388;DHT22;5240;51.128;4.566;2023-08-21T12:54:32;36.70;98.50
10388;DHT22;5240;51.128;4.566;2023-08-21T12:56:59;35.90;97.70
10388;DHT22;5240;51.128;4.566;2023-08-21T12:59:28;35.30;98.80
10388;DHT22;5240;51.128;4.566;2023-08-21T13:01:55;35.00;99.00
10388;DHT22;5240;51.128;4.566;2023-08-21T13:04:22;35.50;98.30
10388;DHT22;5240;51.128;4.566;2023-08-21T13:06:48;35.00;98.40
10388;DHT22;5240;51.128;4.566;2023-08-21T13:09:15;35.00;98.80
10388;DHT22;5240;51.128;4.566;2023-08-21T13:11:42;35.60;98.90
10388;DHT22;5240;51.128;4.566;2023-08-21T13:14:09;36.10;97.40
10388;DHT22;5240;51.128;4.566;2023-08-21T13:16:38;35.70;96.50
10388;DHT22;5240;51.128;4.566;2023-08-21T13:19:05;35.50;96.20
10388;DHT22;5240;51.128;4.566;2023-08-21T13:21:32;36.40;96.10
10388;DHT22;5240;51.128;4.566;2023-08-21T13:23:59;35.90;97.00
10388;DHT22;5240;51.128;4.566;2023-08-21T13:26:25;35.00;97.70
10388;DHT22;5240;51.128;4.566;2023-08-21T13:28:55;35.70;97.50
10388;DHT22;5240;51.128;4.566;2023-08-21T13:31:22;35.90;97.30
10388;DHT22;5240;51.128;4.566;2023-08-21T13:33:51;36.30;97.10
10388;DHT22;5240;51.128;4.566;2023-08-21T13:36:19;36.90;97.10
10388;DHT22;5240;51.128;4.566;2023-08-21T13:38:47;37.30;96.20
10388;DHT22;5240;51.128;4.566;2023-08-21T13:41:14;36.90;95.90
10388;DHT22;5240;51.128;4.566;2023-08-21T13:43:41;36.30;95.60
10388;DHT22;5240;51.128;4.566;2023-08-21T13:46:08;35.70;96.00
10388;DHT22;5240;51.128;4.566;2023-08-21T13:48:35;34.00;96.30
10388;DHT22;5240;51.128;4.566;2023-08-21T13:51:04;33.50;97.00
10388;DHT22;5240;51.128;4.566;2023-08-21T13:53:30;33.40;97.60
10388;DHT22;5240;51.128;4.566;2023-08-21T13:55:57;33.90;97.80
10388;DHT22;5240;51.128;4.566;2023-08-21T13:58:25;34.60;97.90
10388;DHT22;5240;51.128;4.566;2023-08-21T14:00:52;36.10;96.00
10388;DHT22;5240;51.128;4.566;2023-08-21T14:03:21;37.30;95.50
10388;DHT22;5240;51.128;4.566;2023-08-21T14:05:48;37.00;94.20
10388;DHT22;5240;51.128;4.566;2023-08-21T14:08:16;35.80;95.30
10388;DHT22;5240;51.128;4.566;2023-08-21T14:10:43;35.60;95.40
10388;DHT22;5240;51.128;4.566;2023-08-21T14:13:10;36.70;95.80
10388;DHT22;5240;51.128;4.566;2023-08-21T14:15:37;37.30;94.90
10388;DHT22;5240;51.128;4.566;2023-08-21T14:18:04;36.90;94.90
10388;DHT22;5240;51.128;4.566;2023-08-21T14:20:31;36.80;95.20
10388;DHT22;5240;51.128;4.566;2023-08-21T14:22:58;36.90;95.20
10388;DHT22;5240;51.128;4.566;2023-08-21T14:25:27;37.00;94.40
10388;DHT22;5240;51.128;4.566;2023-08-21T14:27:54;36.50;94.00
10388;DHT22;5240;51.128;4.566;2023-08-21T14:30:21;35.60;95.30
10388;DHT22;5240;51.128;4.566;2023-08-21T14:32:48;35.50;95.30
10388;DHT22;5240;51.128;4.566;2023-08-21T14:35:15;36.10;94.90
10388;DHT22;5240;51.128;4.566;2023-08-21T14:37:42;36.60;94.70
10388;DHT22;5240;51.128;4.566;2023-08-21T14:40:10;36.60;94.60
10388;DHT22;5240;51.128;4.566;2023-08-21T14:42:38;36.00;95.50
10388;DHT22;5240;51.128;4.566;2023-08-21T14:45:06;35.60;95.90
10388;DHT22;5240;51.128;4.566;2023-08-21T14:47:33;35.20;96.40
10388;DHT22;5240;51.128;4.566;2023-08-21T14:50:01;35.10;96.20
10388;DHT22;5240;51.128;4.566;2023-08-21T14:52:29;35.40;96.10
10388;DHT22;5240;51.128;4.566;2023-08-21T14:54:55;35.80;95.80
10388;DHT22;5240;51.128;4.566;2023-08-21T14:57:23;35.60;95.30
10388;DHT22;5240;51.128;4.566;2023-08-21T14:59:51;36.10;95.10
10388;DHT22;5240;51.128;4.566;2023-08-21T15:02:18;36.50;94.90
10388;DHT22;5240;51.128;4.566;2023-08-21T15:04:45;36.60;95.20
10388;DHT22;5240;51.128;4.566;2023-08-21T15:07:12;36.40;94.60
10388;DHT22;5240;51.128;4.566;2023-08-21T15:09:39;36.60;94.60
10388;DHT22;5240;51.128;4.566;2023-08-21T15:12:07;35.70;95.60
10388;DHT22;5240;51.128;4.566;2023-08-21T15:14:34;35.50;95.90
10388;DHT22;5240;51.128;4.566;2023-08-21T15:17:03;34.80;96.00
10388;DHT22;5240;51.128;4.566;2023-08-21T15:19:29;34.20;96.40
10388;DHT22;5240;51.128;4.566;2023-08-21T15:21:56;34.10;96.80
10388;DHT22;5240;51.128;4.566;2023-08-21T15:24:23;34.70;96.20
10388;DHT22;5240;51.128;4.566;2023-08-21T15:26:50;35.10;96.00
10388;DHT22;5240;51.128;4.566;2023-08-21T15:29:17;35.00;96.30
10388;DHT22;5240;51.128;4.566;2023-08-21T15:31:44;34.70;95.90
10388;DHT22;5240;51.128;4.566;2023-08-21T15:34:12;35.00;95.70
10388;DHT22;5240;51.128;4.566;2023-08-21T15:36:39;35.60;95.70
10388;DHT22;5240;51.128;4.566;2023-08-21T15:39:06;36.00;95.40
10388;DHT22;5240;51.128;4.566;2023-08-21T15:41:33;35.50;94.90
10388;DHT22;5240;51.128;4.566;2023-08-21T15:44:00;35.20;95.40
10388;DHT22;5240;51.128;4.566;2023-08-21T15:46:27;35.40;95.20
10388;DHT22;5240;51.128;4.566;2023-08-21T15:48:54;35.20;96.00